Time;durP1;ratioP1;P1;durP2;ratioP2;P2;SDS_P1;SDS_P2;PMS_P1;PMS_P2;Temp;Humidity;BMP_temperature;BMP_pressure;BME280_temperature;BME280_humidity;BME280_pressure;Samples;Min_cycle;Max_cycle;Signal;HPM_P1;HPM_P2
2020/12/18 00:00:06;;;;;;;4.57;3.03;;;;;;;6.99;74.39;101532.72;5046543;28;20260;-68
2020/12/18 00:02:32;;;;;;;8.20;3.70;;;;;;;6.97;74.68;101530.97;5041779;28;20230;-67
2020/12/18 00:04:59;;;;;;;6.43;4.50;;;;;;;6.94;74.61;101533.72;5038737;28;20673;-68
2020/12/18 00:07:26;;;;;;;7.20;4.80;;;;;;;6.91;74.63;101528.53;5051679;28;20263;-67
2020/12/18 00:09:52;;;;;;;11.07;5.27;;;;;;;6.89;74.50;101527.72;5036584;28;20206;-66
2020/12/18 00:12:19;;;;;;;9.17;5.63;;;;;;;6.85;74.43;101528.72;5050480;28;20287;-67
2020/12/18 00:14:46;;;;;;;7.43;4.87;;;;;;;6.83;75.34;101527.91;5051757;28;20221;-67
2020/12/18 00:17:12;;;;;;;9.77;5.53;;;;;;;6.81;74.99;101520.94;5036995;28;20206;-67
2020/12/18 00:19:38;;;;;;;8.77;6.13;;;;;;;6.80;74.73;101524.53;5051148;28;20205;-68
2020/12/18 00:22:04;;;;;;;10.07;6.63;;;;;;;6.76;74.60;101526.41;5050423;28;20231;-67
2020/12/18 00:24:30;;;;;;;9.00;5.20;;;;;;;6.73;75.03;101526.50;5043905;28;20255;-67
2020/12/18 00:26:56;;;;;;;10.53;6.53;;;;;;;6.71;75.49;101522.19;5046703;28;20651;-67
2020/12/18 00:29:22;;;;;;;8.23;5.73;;;;;;;6.69;75.76;101513.41;5046077;28;20624;-66
2020/12/18 00:31:49;;;;;;;11.17;6.67;;;;;;;6.67;75.50;101510.81;5049869;28;20197;-67
2020/12/18 00:34:15;;;;;;;9.03;6.10;;;;;;;6.65;75.60;101504.72;5050224;28;20255;-67
2020/12/18 00:36:41;;;;;;;8.57;5.63;;;;;;;6.63;75.21;101521.59;5049813;28;20213;-67
2020/12/18 00:39:07;;;;;;;11.90;7.23;;;;;;;6.63;75.58;101518.94;5050419;28;20205;-67
2020/12/18 00:41:34;;;;;;;14.07;7.70;;;;;;;6.59;75.83;101518.16;5046263;28;20221;-66
2020/12/18 00:44:00;;;;;;;11.17;7.23;;;;;;;6.57;75.73;101520.00;5041569;28;20221;-67
2020/12/18 00:46:26;;;;;;;8.97;5.17;;;;;;;6.56;75.80;101521.78;5049094;28;20615;-66
2020/12/18 00:48:53;;;;;;;9.90;6.20;;;;;;;6.56;75.75;101520.91;5036385;28;20208;-67
2020/12/18 00:51:19;;;;;;;9.73;6.60;;;;;;;6.56;76.50;101526.19;5038345;28;20209;-66
2020/12/18 00:53:45;;;;;;;11.03;6.73;;;;;;;6.55;76.13;101516.53;5040454;28;21406;-67
2020/12/18 00:56:12;;;;;;;11.77;6.67;;;;;;;6.55;76.36;101527.13;5044474;28;20229;-67
2020/12/18 00:58:42;;;;;;;11.97;6.90;;;;;;;6.56;76.29;101537.66;5039698;28;20205;-67
2020/12/18 01:01:08;;;;;;;11.20;6.03;;;;;;;6.57;76.53;101535.88;5049312;28;20209;-67
2020/12/18 01:03:34;;;;;;;9.00;5.40;;;;;;;6.58;76.49;101537.59;5050722;28;20604;-67
2020/12/18 01:06:07;;;;;;;9.27;5.70;;;;;;;6.60;76.56;101541.06;5051421;28;20424;-66
2020/12/18 01:08:33;;;;;;;11.07;6.00;;;;;;;6.59;76.38;101534.91;5046036;28;20624;-67
2020/12/18 01:11:01;;;;;;;9.00;5.03;;;;;;;6.62;76.88;101541.91;5043236;28;20670;-67
2020/12/18 01:13:28;;;;;;;10.60;5.70;;;;;;;6.63;76.57;101540.94;5036150;28;20201;-67
2020/12/18 01:15:54;;;;;;;6.77;4.30;;;;;;;6.65;76.77;101543.53;5035033;28;20210;-67
2020/12/18 01:18:20;;;;;;;11.93;6.70;;;;;;;6.67;76.64;101545.22;5035229;28;20218;-66
2020/12/18 01:20:47;;;;;;;6.37;4.00;;;;;;;6.68;76.73;101544.31;5051469;28;20202;-66
2020/12/18 01:23:14;;;;;;;8.60;5.60;;;;;;;6.69;76.20;101537.25;5035774;28;20222;-68
2020/12/18 01:25:40;;;;;;;9.97;4.37;;;;;;;6.68;76.54;101541.66;5045061;28;20208;-67
2020/12/18 01:28:06;;;;;;;5.07;4.20;;;;;;;6.70;76.52;101537.19;5050582;28;20217;-67
2020/12/18 01:30:32;;;;;;;4.47;3.20;;;;;;;6.69;76.69;101542.53;5051281;28;20221;-67
2020/12/18 01:32:58;;;;;;;5.90;2.60;;;;;;;6.70;75.95;101541.63;5037041;28;20670;-67
2020/12/18 01:35:24;;;;;;;5.63;3.40;;;;;;;6.69;76.30;101543.41;5051149;28;20225;-67
2020/12/18 01:37:50;;;;;;;5.80;3.93;;;;;;;6.68;76.24;101549.59;5038974;28;20712;-67
2020/12/18 01:40:18;;;;;;;7.13;4.40;;;;;;;6.66;75.67;101556.72;5048303;28;20674;-67
2020/12/18 01:42:44;;;;;;;5.50;3.40;;;;;;;6.63;75.86;101556.81;5049153;28;20229;-67
2020/12/18 01:45:10;;;;;;;7.07;5.13;;;;;;;6.61;75.94;101563.97;5048770;28;20576;-67
2020/12/18 01:47:36;;;;;;;5.40;4.10;;;;;;;6.56;75.21;101564.13;5039381;28;20206;-68
2020/12/18 01:50:03;;;;;;;7.40;4.80;;;;;;;6.53;75.86;101571.28;5037347;28;20202;-66
2020/12/18 01:52:31;;;;;;;9.37;4.67;;;;;;;6.53;75.46;101572.16;5043012;28;20237;-67
2020/12/18 01:55:01;;;;;;;5.23;3.87;;;;;;;6.50;75.53;101569.59;5044990;28;20235;-67
2020/12/18 01:57:29;;;;;;;5.67;3.57;;;;;;;6.49;75.95;101561.69;5055991;28;20213;-67
2020/12/18 01:59:56;;;;;;;4.87;3.17;;;;;;;6.49;75.63;101567.88;5054891;28;20233;-67
2020/12/18 02:02:22;;;;;;;5.90;3.67;;;;;;;6.48;76.19;101565.25;5054281;28;20229;-67
2020/12/18 02:04:48;;;;;;;4.37;2.60;;;;;;;6.48;76.00;101574.06;5054786;28;20251;-66
2020/12/18 02:07:20;;;;;;;6.30;3.70;;;;;;;6.48;76.09;101567.91;5054769;28;20578;-67
2020/12/18 02:09:46;;;;;;;6.27;2.73;;;;;;;6.47;75.78;101566.19;5055034;28;20215;-67
2020/12/18 02:12:13;;;;;;;6.63;3.40;;;;;;;6.46;75.74;101562.66;5053381;28;20280;-67
2020/12/18 02:14:40;;;;;;;5.40;3.10;;;;;;;6.46;76.36;101559.16;5043477;28;20227;-67
2020/12/18 02:17:07;;;;;;;8.43;3.23;;;;;;;6.46;76.22;101553.84;5052748;28;20735;-67
2020/12/18 02:19:35;;;;;;;6.23;3.50;;;;;;;6.46;76.56;101553.84;5045664;28;20201;-67
2020/12/18 02:22:11;;;;;;;5.23;3.00;;;;;;;6.47;76.29;101550.31;5052323;28;20235;-67
2020/12/18 02:24:40;;;;;;;3.53;3.03;;;;;;;6.44;76.34;101553.06;5047265;28;20589;-67
2020/12/18 02:27:09;;;;;;;5.17;3.50;;;;;;;6.42;76.09;101562.84;5049734;28;20202;-67
2020/12/18 02:29:35;;;;;;;4.50;3.43;;;;;;;6.40;76.25;101554.94;5036252;28;20206;-68
2020/12/18 02:32:01;;;;;;;4.83;4.10;;;;;;;6.38;75.75;101566.47;5049468;28;20553;-67
2020/12/18 02:34:27;;;;;;;5.00;3.90;;;;;;;6.36;75.88;101571.81;5045315;28;20225;-67
2020/12/18 02:36:53;;;;;;;6.37;4.33;;;;;;;6.33;76.26;101565.75;5053590;28;20255;-66
2020/12/18 02:39:20;;;;;;;4.90;3.90;;;;;;;6.29;76.13;101562.31;5054597;28;20674;-67
2020/12/18 02:41:46;;;;;;;8.50;3.57;;;;;;;6.28;76.18;101560.59;5048758;28;20228;-66
2020/12/18 02:44:13;;;;;;;6.10;3.00;;;;;;;6.25;76.11;101552.78;5053860;28;20221;-67
2020/12/18 02:46:39;;;;;;;4.60;3.10;;;;;;;6.20;76.46;101554.69;5054507;28;20251;-67
2020/12/18 02:49:05;;;;;;;4.80;4.00;;;;;;;6.15;76.24;101554.81;5053482;28;20254;-67
2020/12/18 02:51:31;;;;;;;6.57;3.83;;;;;;;6.09;76.65;101564.75;5043319;28;20210;-67
2020/12/18 02:53:57;;;;;;;6.73;4.00;;;;;;;6.04;76.17;101564.88;5071577;22;20230;-69
2020/12/18 02:56:24;;;;;;;5.50;4.00;;;;;;;5.97;76.31;101555.38;5054324;28;20205;-69
2020/12/18 02:58:50;;;;;;;4.80;3.73;;;;;;;5.88;76.27;101563.56;5046283;28;20293;-69
2020/12/18 03:01:17;;;;;;;6.27;4.03;;;;;;;5.76;75.86;101558.63;5047333;28;20213;-69
2020/12/18 03:03:43;;;;;;;5.93;3.77;;;;;;;5.64;75.84;101561.63;5052412;28;20677;-69
2020/12/18 03:06:10;;;;;;;6.57;3.83;;;;;;;5.52;75.69;101555.78;5041387;28;20259;-69
2020/12/18 03:08:36;;;;;;;6.03;4.63;;;;;;;5.38;75.85;101557.06;5050094;28;20205;-69
2020/12/18 03:11:02;;;;;;;4.47;3.97;;;;;;;5.29;75.84;101557.31;5050709;28;20213;-70
2020/12/18 03:13:28;;;;;;;4.70;4.13;;;;;;;5.22;76.26;101559.25;5048424;28;20205;-68
2020/12/18 03:15:55;;;;;;;6.27;3.80;;;;;;;5.19;76.54;101557.59;5044758;28;20262;-69
2020/12/18 03:18:22;;;;;;;4.67;3.57;;;;;;;5.18;76.51;101557.63;5029475;28;20766;-69
2020/12/18 03:20:48;;;;;;;6.60;4.07;;;;;;;5.15;76.62;101560.34;5008913;28;20214;-69
2020/12/18 03:23:14;;;;;;;5.10;4.17;;;;;;;5.12;76.76;101555.13;5016207;28;20228;-69
2020/12/18 03:25:40;;;;;;;8.53;4.40;;;;;;;5.06;76.59;101560.56;5021330;28;20226;-69
2020/12/18 03:28:06;;;;;;;6.00;4.10;;;;;;;5.01;76.77;101566.00;5028273;28;20202;-68
2020/12/18 03:30:32;;;;;;;6.67;4.43;;;;;;;4.98;77.29;101570.47;5026308;28;20586;-69
2020/12/18 03:32:58;;;;;;;8.43;5.23;;;;;;;4.92;77.08;101563.56;5030317;28;20667;-68
2020/12/18 03:35:27;;;;;;;10.10;4.93;;;;;;;4.87;77.05;101558.41;5033064;28;20221;-68
2020/12/18 03:37:53;;;;;;;7.23;4.30;;;;;;;4.86;77.42;101567.22;5042113;28;20213;-68
2020/12/18 03:40:20;;;;;;;7.13;4.17;;;;;;;4.83;77.47;101569.09;5038782;28;20206;-68
2020/12/18 03:42:46;;;;;;;7.47;4.60;;;;;;;4.77;77.86;101562.19;5045256;28;20225;-69
2020/12/18 03:45:12;;;;;;;9.07;4.73;;;;;;;4.73;77.83;101565.81;5040256;28;20222;-69
2020/12/18 03:47:38;;;;;;;6.33;4.70;;;;;;;4.70;78.00;101565.00;5034219;28;20204;-68
2020/12/18 03:50:06;;;;;;;6.60;4.33;;;;;;;4.68;78.17;101567.69;5032545;28;20202;-69
2020/12/18 03:52:33;;;;;;;7.03;4.17;;;;;;;4.66;78.06;101564.19;5033038;28;20205;-69
2020/12/18 03:54:59;;;;;;;6.03;4.03;;;;;;;4.65;78.25;101565.13;5031972;28;22026;-70
2020/12/18 03:57:25;;;;;;;6.30;4.37;;;;;;;4.63;78.05;101561.66;5024709;28;20264;-69
2020/12/18 03:59:51;;;;;;;6.20;4.50;;;;;;;4.63;78.32;101571.34;5036454;28;20735;-69
2020/12/18 04:02:17;;;;;;;6.40;3.80;;;;;;;4.60;78.47;101569.66;5031534;28;20222;-69
2020/12/18 04:04:43;;;;;;;6.37;4.20;;;;;;;4.56;78.51;101567.97;5032809;28;20233;-68
2020/12/18 04:07:12;;;;;;;5.73;4.43;;;;;;;4.54;78.26;101573.28;5031228;28;20572;-69
2020/12/18 04:09:39;;;;;;;5.60;3.73;;;;;;;4.51;78.68;101576.00;5033099;28;20264;-69
2020/12/18 04:12:05;;;;;;;5.60;3.60;;;;;;;4.49;78.22;101571.66;5031762;28;20260;-68
2020/12/18 04:14:32;;;;;;;6.40;3.43;;;;;;;4.48;78.50;101569.91;5032424;28;20233;-69
2020/12/18 04:16:58;;;;;;;7.67;3.73;;;;;;;4.46;78.74;101572.63;5032038;28;20206;-69
2020/12/18 04:19:24;;;;;;;5.37;3.83;;;;;;;4.45;78.63;101570.03;5034439;28;20206;-69
2020/12/18 04:21:50;;;;;;;5.47;3.43;;;;;;;4.46;78.95;101567.34;5031790;28;20317;-69
2020/12/18 04:24:16;;;;;;;7.40;4.23;;;;;;;4.48;79.10;101577.84;5031633;28;20222;-69
2020/12/18 04:26:43;;;;;;;9.57;4.20;;;;;;;4.51;79.50;101575.13;5028837;28;20210;-68
2020/12/18 04:29:09;;;;;;;7.23;4.67;;;;;;;4.54;79.55;101575.06;5022423;28;20265;-69
2020/12/18 04:31:35;;;;;;;7.73;4.57;;;;;;;4.59;79.85;101572.31;5029169;28;20210;-70
2020/12/18 04:34:01;;;;;;;7.40;4.47;;;;;;;4.65;80.13;101570.41;5012640;28;20710;-69
2020/12/18 04:36:27;;;;;;;5.83;4.40;;;;;;;4.69;80.33;101573.81;5025808;28;20292;-69
2020/12/18 04:38:53;;;;;;;6.77;4.30;;;;;;;4.74;80.22;101579.88;5019340;28;20201;-69
2020/12/18 04:41:19;;;;;;;10.47;5.00;;;;;;;4.78;80.50;101574.47;5032487;28;20572;-69
2020/12/18 04:43:46;;;;;;;7.63;4.67;;;;;;;4.81;80.25;101573.53;5030878;28;20706;-69
2020/12/18 04:46:17;;;;;;;6.17;5.10;;;;;;;4.84;80.51;101579.59;5031734;28;20209;-68
2020/12/18 04:48:44;;;;;;;6.77;5.50;;;;;;;4.86;80.64;101572.50;5032171;28;20206;-68
2020/12/18 04:51:16;;;;;;;10.90;5.87;;;;;;;4.86;80.75;101567.22;5032468;28;20212;-69
2020/12/18 04:53:42;;;;;;;8.53;6.33;;;;;;;4.88;80.60;101572.47;5031413;28;20208;-69
2020/12/18 04:56:10;;;;;;;7.70;6.00;;;;;;;4.91;81.03;101568.88;5031876;28;20206;-69
2020/12/18 04:58:37;;;;;;;8.27;6.33;;;;;;;4.94;80.95;101568.81;5033927;28;20251;-68
2020/12/18 05:01:06;;;;;;;11.43;6.50;;;;;;;4.94;81.03;101566.16;5032459;28;20744;-69
2020/12/18 05:03:33;;;;;;;8.80;6.50;;;;;;;4.97;81.07;101564.31;5027459;28;20257;-69
2020/12/18 05:06:03;;;;;;;8.93;6.30;;;;;;;4.99;81.46;101562.53;5029271;28;20206;-69
2020/12/18 05:08:30;;;;;;;9.90;6.23;;;;;;;5.01;81.31;101563.34;5032191;28;20928;-69
2020/12/18 05:10:56;;;;;;;7.63;6.07;;;;;;;5.05;81.31;101564.13;5032584;28;20212;-68
2020/12/18 05:13:22;;;;;;;9.60;6.10;;;;;;;5.08;81.19;101561.41;5032365;28;20240;-69
2020/12/18 05:15:48;;;;;;;7.70;5.93;;;;;;;5.13;81.65;101559.50;5019752;28;20722;-68
2020/12/18 05:18:15;;;;;;;8.33;6.23;;;;;;;5.16;81.56;101559.44;5030997;28;20231;-69
2020/12/18 05:20:41;;;;;;;9.20;6.43;;;;;;;5.20;81.62;101559.28;5031829;28;20210;-68
2020/12/18 05:23:09;;;;;;;11.67;5.90;;;;;;;5.23;81.59;101564.50;5034289;28;20227;-69
2020/12/18 05:25:38;;;;;;;10.10;5.63;;;;;;;5.29;81.82;101565.25;5030901;28;20245;-69
2020/12/18 05:28:04;;;;;;;9.00;5.87;;;;;;;5.32;81.89;101571.31;5017765;28;20212;-69
2020/12/18 05:30:31;;;;;;;8.63;5.57;;;;;;;5.37;81.83;101579.13;5034225;28;20214;-68
2020/12/18 05:32:57;;;;;;;9.93;5.83;;;;;;;5.39;81.95;101570.22;5035094;28;20201;-69
2020/12/18 05:35:24;;;;;;;7.13;5.43;;;;;;;5.42;81.87;101571.91;5041189;28;20222;-69
2020/12/18 05:37:51;;;;;;;8.97;5.73;;;;;;;5.45;82.05;101570.06;5038241;28;20335;-69
2020/12/18 05:40:18;;;;;;;9.73;6.40;;;;;;;5.49;81.80;101571.72;5038071;28;20756;-69
2020/12/18 05:42:45;;;;;;;10.80;7.27;;;;;;;5.52;81.91;101570.78;5039870;28;20225;-68
2020/12/18 05:45:13;;;;;;;8.33;5.97;;;;;;;5.54;81.88;101575.13;5035371;28;20232;-69
2020/12/18 05:47:56;;;;;;;13.93;7.23;;;;;;;5.55;81.90;101573.34;5049470;28;20591;-69
2020/12/18 05:50:28;;;;;;;9.77;6.23;;;;;;;5.56;81.70;101575.91;5025482;28;20203;-69
2020/12/18 05:52:56;;;;;;;9.43;6.37;;;;;;;5.56;81.73;101572.41;5038780;28;20297;-69
2020/12/18 05:55:22;;;;;;;9.37;6.63;;;;;;;5.57;81.92;101579.41;5044123;28;20292;-69
2020/12/18 05:57:48;;;;;;;7.00;5.90;;;;;;;5.56;81.54;101575.91;5031947;28;20259;-69
2020/12/18 06:00:15;;;;;;;9.73;5.67;;;;;;;5.55;81.87;101579.47;5034275;28;20202;-68
2020/12/18 06:02:43;;;;;;;9.87;7.30;;;;;;;5.56;81.56;101580.31;5037444;28;20597;-69
2020/12/18 06:05:09;;;;;;;11.53;5.73;;;;;;;5.55;82.00;101575.97;5035263;28;20705;-69
2020/12/18 06:07:37;;;;;;;8.53;6.30;;;;;;;5.55;81.56;101579.47;5034330;28;20210;-68
2020/12/18 06:10:03;;;;;;;8.93;6.33;;;;;;;5.55;81.57;101586.56;5033815;28;20209;-69
2020/12/18 06:12:30;;;;;;;11.07;5.97;;;;;;;5.54;81.66;101583.03;5036309;28;20198;-69
2020/12/18 06:14:57;;;;;;;7.83;5.83;;;;;;;5.53;81.49;101593.66;5034633;28;20226;-68
2020/12/18 06:17:28;;;;;;;10.80;6.53;;;;;;;5.52;81.54;101591.91;5041390;28;20233;-69
2020/12/18 06:19:57;;;;;;;9.43;5.87;;;;;;;5.50;81.33;101596.38;5045746;28;20540;-69
2020/12/18 06:22:23;;;;;;;8.40;6.40;;;;;;;5.49;81.42;101592.00;5040459;28;20230;-68
2020/12/18 06:24:50;;;;;;;10.50;5.90;;;;;;;5.48;81.33;101592.91;5042927;28;20303;-69
2020/12/18 06:27:18;;;;;;;10.33;6.10;;;;;;;5.46;81.47;101587.66;5035148;28;20214;-69
2020/12/18 06:29:45;;;;;;;9.63;6.73;;;;;;;5.46;81.37;101584.16;5039765;28;20202;-68
2020/12/18 06:32:21;;;;;;;8.70;6.13;;;;;;;5.45;81.14;101587.69;5028322;28;20203;-68
2020/12/18 06:34:48;;;;;;;8.07;6.20;;;;;;;5.43;81.33;101589.50;5033135;28;20232;-69
2020/12/18 06:37:26;;;;;;;10.27;6.33;;;;;;;5.40;81.46;101585.16;5033828;28;20209;-69
2020/12/18 06:39:53;;;;;;;8.77;6.37;;;;;;;5.37;81.02;101587.91;5034153;28;20198;-68
2020/12/18 06:42:22;;;;;;;11.33;6.53;;;;;;;5.34;81.49;101584.50;5033722;28;20222;-68
2020/12/18 06:44:50;;;;;;;15.03;5.97;;;;;;;5.30;81.32;101582.81;5041503;28;20225;-68
2020/12/18 06:47:18;;;;;;;9.67;6.23;;;;;;;5.23;81.14;101580.34;5034407;28;20213;-69
2020/12/18 06:50:02;;;;;;;11.20;6.00;;;;;;;5.15;81.06;101582.34;5035219;28;20202;-68
2020/12/18 06:52:52;;;;;;;9.60;6.57;;;;;;;5.07;81.09;101578.13;5022388;28;20210;-68
2020/12/18 06:55:40;;;;;;;12.40;6.90;;;;;;;5.00;81.17;101579.22;5035382;28;20242;-69
2020/12/18 06:58:18;;;;;;;8.80;6.47;;;;;;;4.95;81.35;101570.53;5037249;28;20213;-69
2020/12/18 07:00:46;;;;;;;9.07;6.80;;;;;;;4.90;81.09;101568.00;5024365;28;20574;-68
2020/12/18 07:03:46;;;;;;;9.60;6.83;;;;;;;4.86;81.31;101569.84;5033271;28;20230;-69
2020/12/18 07:06:20;;;;;;;10.43;7.20;;;;;;;4.79;81.23;101560.38;5037503;28;20229;-69
2020/12/18 07:08:47;;;;;;;11.00;7.30;;;;;;;4.76;81.45;101556.94;5033554;28;20605;-70
2020/12/18 07:11:16;;;;;;;8.93;6.67;;;;;;;4.72;81.39;101564.06;5033778;28;20209;-68
2020/12/18 07:13:47;;;;;;;10.23;6.47;;;;;;;4.73;81.67;101554.38;5040900;28;20213;-69
2020/12/18 07:16:14;;;;;;;10.67;6.70;;;;;;;4.75;82.05;101545.53;5041011;28;20206;-69
2020/12/18 07:18:41;;;;;;;9.77;6.40;;;;;;;4.79;82.05;101555.09;5053069;28;20300;-68
2020/12/18 07:21:09;;;;;;;10.30;6.10;;;;;;;4.84;81.86;101560.25;5034053;28;20202;-69
2020/12/18 07:23:37;;;;;;;10.63;6.60;;;;;;;4.86;82.48;101561.94;5037563;28;20218;-68
2020/12/18 07:26:04;;;;;;;9.33;6.10;;;;;;;4.89;82.45;101569.78;5035138;28;20203;-68
2020/12/18 07:28:32;;;;;;;10.17;7.03;;;;;;;4.94;82.07;101566.16;5032946;28;20206;-68
2020/12/18 07:30:59;;;;;;;10.47;7.00;;;;;;;4.95;82.46;101562.63;5033194;28;20202;-68
2020/12/18 07:33:26;;;;;;;9.60;6.67;;;;;;;4.98;82.45;101559.91;5032712;28;20676;-69
2020/12/18 07:35:54;;;;;;;8.70;6.57;;;;;;;4.99;82.19;101556.38;5027396;28;20222;-68
2020/12/18 07:38:23;;;;;;;14.40;6.30;;;;;;;5.01;82.21;101559.84;5032934;28;20199;-69
2020/12/18 07:40:52;;;;;;;9.73;6.07;;;;;;;5.03;82.59;101550.06;5032886;28;20666;-68
2020/12/18 07:43:22;;;;;;;9.33;6.13;;;;;;;5.04;82.23;101541.25;5038143;28;20233;-69
2020/12/18 07:45:50;;;;;;;7.37;5.80;;;;;;;5.05;82.26;101549.13;5032728;28;20260;-68
2020/12/18 07:48:18;;;;;;;8.27;5.93;;;;;;;5.08;82.21;101541.13;5019116;28;20216;-69
2020/12/18 07:50:58;;;;;;;7.13;4.97;;;;;;;5.12;82.69;101555.13;5025986;28;20312;-69
2020/12/18 07:53:25;;;;;;;10.10;5.53;;;;;;;5.14;82.69;101548.91;5029981;28;20237;-68
2020/12/18 07:55:59;;;;;;;11.53;6.83;;;;;;;5.17;82.57;101558.53;5033097;28;20245;-69
2020/12/18 07:58:25;;;;;;;10.97;5.93;;;;;;;5.21;82.58;101554.88;5032177;28;20202;-69
2020/12/18 08:01:03;;;;;;;8.50;5.77;;;;;;;5.26;82.51;101555.63;5031090;28;20666;-68
2020/12/18 08:03:29;;;;;;;8.13;5.37;;;;;;;5.29;82.51;101559.97;5036301;28;20232;-69
2020/12/18 08:05:56;;;;;;;8.93;5.40;;;;;;;5.33;82.66;101556.34;5024764;28;20226;-69
2020/12/18 08:08:23;;;;;;;8.50;5.80;;;;;;;5.37;82.58;101553.59;5024574;28;20641;-69
2020/12/18 08:10:49;;;;;;;7.80;5.20;;;;;;;5.39;82.66;101562.31;5027445;28;20678;-68
2020/12/18 08:13:25;;;;;;;8.07;5.37;;;;;;;5.43;82.61;101566.59;5018626;28;20198;-69
2020/12/18 08:16:05;;;;;;;9.10;5.80;;;;;;;5.47;82.39;101570.03;5025898;28;20790;-69
2020/12/18 08:18:31;;;;;;;9.73;5.60;;;;;;;5.49;82.50;101563.78;5023400;28;20221;-69
2020/12/18 08:20:57;;;;;;;7.77;5.17;;;;;;;5.52;82.20;101568.13;5017869;28;20734;-69
2020/12/18 08:23:26;;;;;;;10.70;6.30;;;;;;;5.53;82.28;101570.75;5024151;28;20226;-68
2020/12/18 08:25:53;;;;;;;10.43;5.63;;;;;;;5.54;82.44;101572.47;5022301;28;20271;-69
2020/12/18 08:28:21;;;;;;;7.37;5.33;;;;;;;5.56;82.18;101565.34;5025380;28;20214;-69
2020/12/18 08:30:48;;;;;;;8.27;6.23;;;;;;;5.59;82.30;101564.38;5021466;28;20199;-69
2020/12/18 08:33:18;;;;;;;6.60;5.77;;;;;;;5.62;82.13;101568.72;5025988;28;21778;-69
2020/12/18 08:35:46;;;;;;;9.97;6.10;;;;;;;5.64;82.13;101564.28;5023312;28;20226;-67
2020/12/18 08:38:13;;;;;;;11.83;6.37;;;;;;;5.64;82.13;101562.50;5023281;28;20260;-69
2020/12/18 08:40:40;;;;;;;8.43;6.03;;;;;;;5.65;82.11;101576.56;5026615;28;20207;-69
2020/12/18 08:43:06;;;;;;;8.33;5.87;;;;;;;5.67;82.16;101577.41;5022598;28;20321;-69
2020/12/18 08:45:41;;;;;;;10.60;7.20;;;;;;;5.67;81.86;101572.13;5019239;28;20643;-69
2020/12/18 08:48:08;;;;;;;11.67;7.07;;;;;;;5.66;82.21;101580.94;5022264;28;20212;-68
2020/12/18 08:50:35;;;;;;;9.13;7.33;;;;;;;5.67;81.95;101575.63;5023563;28;20745;-68
2020/12/18 08:53:09;;;;;;;9.40;6.23;;;;;;;5.70;82.19;101577.31;5029108;28;20206;-70
2020/12/18 08:55:35;;;;;;;9.33;6.20;;;;;;;5.72;82.04;101575.50;5065292;22;20646;-66
2020/12/18 08:58:05;;;;;;;8.73;6.63;;;;;;;5.74;82.11;101576.28;5049509;28;20666;-66
2020/12/18 09:00:32;;;;;;;12.10;5.87;;;;;;;5.76;81.79;101567.41;5045425;28;20209;-66
2020/12/18 09:02:58;;;;;;;9.37;6.43;;;;;;;5.79;81.88;101564.69;5047096;28;20228;-66
2020/12/18 09:05:26;;;;;;;11.67;6.33;;;;;;;5.81;82.03;101562.00;5043225;28;20312;-66
2020/12/18 09:08:00;;;;;;;10.13;6.90;;;;;;;5.83;81.69;101568.13;5027500;28;20206;-66
2020/12/18 09:10:33;;;;;;;11.13;7.07;;;;;;;5.84;82.02;101572.50;5027342;28;20961;-66
2020/12/18 09:13:09;;;;;;;12.77;8.13;;;;;;;5.85;82.12;101572.47;5039213;28;20209;-66
2020/12/18 09:15:35;;;;;;;10.10;7.10;;;;;;;5.89;81.81;101576.78;5034001;28;20316;-66
2020/12/18 09:18:04;;;;;;;8.50;6.60;;;;;;;5.92;81.68;101573.16;5035940;28;20293;-66
2020/12/18 09:20:32;;;;;;;9.50;6.43;;;;;;;5.96;81.92;101574.81;5040257;28;20289;-66
2020/12/18 09:23:02;;;;;;;9.40;6.73;;;;;;;5.99;81.59;101571.22;5032683;28;20230;-66
2020/12/18 09:25:28;;;;;;;8.57;6.57;;;;;;;6.03;nan;101578.16;5022376;28;20673;-66
2020/12/18 09:27:58;;;;;;;12.50;7.80;;;;;;;6.05;81.84;101574.53;5018040;28;20202;-66
2020/12/18 09:30:26;;;;;;;8.97;6.73;;;;;;;6.10;81.92;101569.97;5013534;28;20225;-66
2020/12/18 09:33:12;;;;;;;9.83;6.97;;;;;;;6.14;81.49;101581.31;5012530;28;20207;-66
2020/12/18 09:35:39;;;;;;;10.37;6.10;;;;;;;6.18;81.79;101580.31;5025418;28;20303;-66
2020/12/18 09:38:06;;;;;;;9.20;6.40;;;;;;;6.21;81.56;101575.81;5036177;28;20213;-66
2020/12/18 09:40:32;;;;;;;9.97;5.80;;;;;;;6.26;81.82;101579.19;5022737;28;20215;-65
2020/12/18 09:42:58;;;;;;;9.67;6.53;;;;;;;6.31;81.72;101572.88;5016241;28;20722;-66
2020/12/18 09:45:24;;;;;;;9.77;5.43;;;;;;;6.36;81.46;101571.81;5013677;28;20739;-66
2020/12/18 09:47:50;;;;;;;9.83;6.33;;;;;;;6.42;80.96;101579.56;5017781;28;20279;-66
2020/12/18 09:50:16;;;;;;;7.83;5.77;;;;;;;6.46;81.13;101573.25;5017744;28;20209;-66
2020/12/18 09:52:43;;;;;;;7.80;6.10;;;;;;;6.50;80.88;101566.09;5019521;28;20572;-66
2020/12/18 09:55:10;;;;;;;7.73;5.40;;;;;;;6.56;80.71;101564.13;5018784;28;20231;-66
2020/12/18 09:57:36;;;;;;;7.30;6.10;;;;;;;6.60;80.60;101565.75;5019599;28;20219;-66
2020/12/18 10:00:04;;;;;;;8.10;5.03;;;;;;;6.65;80.43;101565.59;5018170;28;20229;-66
2020/12/18 10:02:30;;;;;;;9.40;5.67;;;;;;;6.67;80.72;101561.13;5013674;28;20609;-66
2020/12/18 10:04:57;;;;;;;6.87;4.90;;;;;;;6.69;80.39;101556.63;5020075;28;20280;-66
2020/12/18 10:07:24;;;;;;;8.23;5.40;;;;;;;6.71;80.57;101560.09;5017000;28;20214;-65
2020/12/18 10:09:50;;;;;;;7.60;5.63;;;;;;;6.73;79.57;101557.41;5011919;28;20563;-66
2020/12/18 10:12:17;;;;;;;9.10;5.23;;;;;;;6.77;80.42;101551.97;5012674;28;20315;-66
2020/12/18 10:14:43;;;;;;;7.27;4.80;;;;;;;6.81;80.01;101550.94;5013613;28;20239;-65
2020/12/18 10:17:09;;;;;;;8.43;5.73;;;;;;;6.85;79.38;101546.41;5015773;28;20199;-66
2020/12/18 10:19:35;;;;;;;6.87;4.30;;;;;;;6.92;79.97;101540.84;5017681;28;20260;-66
2020/12/18 10:22:01;;;;;;;7.33;5.33;;;;;;;6.96;79.45;101539.84;5013782;28;20208;-65
2020/12/18 10:24:27;;;;;;;6.53;4.77;;;;;;;6.99;79.40;101533.53;5018804;28;20230;-66
2020/12/18 10:26:53;;;;;;;7.17;4.03;;;;;;;7.05;79.08;101535.13;5020838;28;20233;-66
2020/12/18 10:29:20;;;;;;;6.77;4.70;;;;;;;7.10;79.24;101530.53;5020260;28;20213;-66
2020/12/18 10:31:52;;;;;;;7.13;5.30;;;;;;;7.13;79.31;101530.44;5017828;28;20739;-65
2020/12/18 10:34:18;;;;;;;8.37;4.83;;;;;;;7.15;79.03;101536.56;5023393;28;20201;-66
2020/12/18 10:36:44;;;;;;;8.83;4.97;;;;;;;7.16;78.69;101533.00;5031198;28;20222;-66
2020/12/18 10:39:10;;;;;;;6.03;3.60;;;;;;;7.19;78.63;101530.22;5034746;28;20255;-66
2020/12/18 10:41:38;;;;;;;5.67;4.40;;;;;;;7.22;77.78;101530.97;5021369;28;20233;-66
2020/12/18 10:44:04;;;;;;;7.87;5.07;;;;;;;7.26;77.58;101542.34;5027227;28;20292;-66
2020/12/18 10:46:32;;;;;;;8.00;4.83;;;;;;;7.28;78.01;101541.38;5023121;28;20921;-66
2020/12/18 10:48:58;;;;;;;7.17;3.97;;;;;;;7.33;78.17;101535.91;5023378;28;20293;-67
2020/12/18 10:51:24;;;;;;;3.77;3.27;;;;;;;7.35;77.50;101536.69;5025262;28;20209;-65
2020/12/18 10:53:50;;;;;;;9.10;4.30;;;;;;;7.39;78.19;101543.63;5018099;28;20213;-66
2020/12/18 10:56:16;;;;;;;8.40;3.70;;;;;;;7.41;77.89;101547.06;5020636;28;20249;-66
2020/12/18 10:58:42;;;;;;;8.77;4.70;;;;;;;7.43;77.71;101545.25;5015634;28;20590;-66
2020/12/18 11:01:08;;;;;;;8.57;4.43;;;;;;;7.48;77.22;101545.09;5019327;28;20203;-66
2020/12/18 11:03:35;;;;;;;7.03;4.17;;;;;;;7.51;77.31;101543.19;5023970;28;20230;-66
2020/12/18 11:06:03;;;;;;;7.40;5.50;;;;;;;7.55;77.05;101541.28;5024233;28;20231;-66
2020/12/18 11:08:29;;;;;;;7.43;4.30;;;;;;;7.58;77.44;101544.69;5020244;28;20206;-66
2020/12/18 11:10:55;;;;;;;7.03;4.70;;;;;;;7.61;76.75;101549.88;5023594;28;20202;-62
2020/12/18 11:13:21;;;;;;;7.80;4.60;;;;;;;7.64;77.39;101547.13;5021448;28;20203;-66
2020/12/18 11:15:48;;;;;;;6.47;4.50;;;;;;;7.70;76.88;101547.81;5023255;28;20296;-66
2020/12/18 11:18:14;;;;;;;8.23;5.47;;;;;;;7.73;76.96;101545.91;5017062;28;20247;-66
2020/12/18 11:20:41;;;;;;;5.80;3.70;;;;;;;7.75;76.23;101546.69;5017843;28;20203;-66
2020/12/18 11:23:07;;;;;;;5.63;3.97;;;;;;;7.77;76.33;101536.03;5022701;28;20284;-66
2020/12/18 11:25:33;;;;;;;8.40;4.47;;;;;;;7.80;76.29;101535.94;5020544;28;20221;-67
2020/12/18 11:27:59;;;;;;;7.03;4.67;;;;;;;7.84;76.72;101534.91;5023964;28;20203;-66
2020/12/18 11:30:25;;;;;;;6.93;4.70;;;;;;;7.87;76.52;101545.41;5028176;28;20221;-66
2020/12/18 11:32:51;;;;;;;7.53;4.77;;;;;;;7.88;75.83;101547.13;5025706;28;20197;-66